sensor_id;sensor_type;location;lat;lon;timestamp;temperature;humidity
45983;DHT22;31711;47.158;7.346;2022-11-25T00:00:11;4.80;99.90
45983;DHT22;31711;47.158;7.346;2022-11-25T00:02:43;4.80;99.90
45983;DHT22;31711;47.158;7.346;2022-11-25T00:05:10;4.70;99.90
45983;DHT22;31711;47.158;7.346;2022-11-25T00:07:36;4.70;99.90
45983;DHT22;31711;47.158;7.346;2022-11-25T00:10:03;4.70;99.90
45983;DHT22;31711;47.158;7.346;2022-11-25T00:12:29;4.60;99.90
45983;DHT22;31711;47.158;7.346;2022-11-25T00:14:55;4.60;99.90
45983;DHT22;31711;47.158;7.346;2022-11-25T00:17:22;4.70;99.90
45983;DHT22;31711;47.158;7.346;2022-11-25T00:19:48;4.70;99.90
45983;DHT22;31711;47.158;7.346;2022-11-25T00:22:15;4.70;99.90
45983;DHT22;31711;47.158;7.346;2022-11-25T00:24:42;4.70;99.90
45983;DHT22;31711;47.158;7.346;2022-11-25T00:27:08;4.70;99.90
45983;DHT22;31711;47.158;7.346;2022-11-25T00:29:34;4.60;99.90
45983;DHT22;31711;47.158;7.346;2022-11-25T00:32:00;4.60;99.90
45983;DHT22;31711;47.158;7.346;2022-11-25T00:34:26;4.60;99.90
45983;DHT22;31711;47.158;7.346;2022-11-25T00:36:52;4.60;99.90
45983;DHT22;31711;47.158;7.346;2022-11-25T00:39:18;4.70;99.90
45983;DHT22;31711;47.158;7.346;2022-11-25T00:41:45;4.70;99.90
45983;DHT22;31711;47.158;7.346;2022-11-25T00:44:30;4.70;99.90
45983;DHT22;31711;47.158;7.346;2022-11-25T00:47:10;4.80;99.90
45983;DHT22;31711;47.158;7.346;2022-11-25T00:49:40;4.90;99.90
45983;DHT22;31711;47.158;7.346;2022-11-25T00:52:08;4.90;99.90
45983;DHT22;31711;47.158;7.346;2022-11-25T00:54:34;5.00;99.90
45983;DHT22;31711;47.158;7.346;2022-11-25T00:57:00;5.10;99.90
45983;DHT22;31711;47.158;7.346;2022-11-25T00:59:26;5.00;99.90
45983;DHT22;31711;47.158;7.346;2022-11-25T01:01:53;5.00;99.90
45983;DHT22;31711;47.158;7.346;2022-11-25T01:04:20;5.10;99.90
45983;DHT22;31711;47.158;7.346;2022-11-25T01:06:46;5.10;99.90
45983;DHT22;31711;47.158;7.346;2022-11-25T01:09:12;5.20;99.90
45983;DHT22;31711;47.158;7.346;2022-11-25T01:11:39;5.20;99.90
45983;DHT22;31711;47.158;7.346;2022-11-25T01:14:05;5.20;99.90
45983;DHT22;31711;47.158;7.346;2022-11-25T01:16:32;5.20;99.90
45983;DHT22;31711;47.158;7.346;2022-11-25T01:18:59;5.20;99.90
45983;DHT22;31711;47.158;7.346;2022-11-25T01:21:27;5.10;99.90
45983;DHT22;31711;47.158;7.346;2022-11-25T01:23:53;5.10;99.90
45983;DHT22;31711;47.158;7.346;2022-11-25T01:26:22;5.00;99.90
45983;DHT22;31711;47.158;7.346;2022-11-25T01:28:53;5.00;99.90
45983;DHT22;31711;47.158;7.346;2022-11-25T01:31:20;5.00;99.90
45983;DHT22;31711;47.158;7.346;2022-11-25T01:33:52;5.00;99.90
45983;DHT22;31711;47.158;7.346;2022-11-25T01:36:18;5.00;99.90
45983;DHT22;31711;47.158;7.346;2022-11-25T01:38:48;5.10;99.90
45983;DHT22;31711;47.158;7.346;2022-11-25T01:41:14;5.10;99.90
45983;DHT22;31711;47.158;7.346;2022-11-25T01:43:40;5.10;99.90
45983;DHT22;31711;47.158;7.346;2022-11-25T01:46:15;5.20;99.90
45983;DHT22;31711;47.158;7.346;2022-11-25T01:48:48;5.20;99.90
45983;DHT22;31711;47.158;7.346;2022-11-25T01:51:27;5.10;99.90
45983;DHT22;31711;47.158;7.346;2022-11-25T01:53:58;5.00;99.90
45983;DHT22;31711;47.158;7.346;2022-11-25T01:56:28;5.00;99.90
45983;DHT22;31711;47.158;7.346;2022-11-25T01:58:55;5.00;99.90
45983;DHT22;31711;47.158;7.346;2022-11-25T02:01:22;5.00;99.90
45983;DHT22;31711;47.158;7.346;2022-11-25T02:03:50;5.00;99.90
45983;DHT22;31711;47.158;7.346;2022-11-25T02:06:27;5.00;99.90
45983;DHT22;31711;47.158;7.346;2022-11-25T02:09:05;5.00;99.90
45983;DHT22;31711;47.158;7.346;2022-11-25T02:11:34;5.00;99.90
45983;DHT22;31711;47.158;7.346;2022-11-25T02:14:02;5.00;99.90
45983;DHT22;31711;47.158;7.346;2022-11-25T02:16:28;5.00;99.90
45983;DHT22;31711;47.158;7.346;2022-11-25T02:18:54;5.10;99.90
45983;DHT22;31711;47.158;7.346;2022-11-25T02:21:25;5.10;99.90
45983;DHT22;31711;47.158;7.346;2022-11-25T02:24:01;5.10;99.90
45983;DHT22;31711;47.158;7.346;2022-11-25T02:26:28;5.20;99.90
45983;DHT22;31711;47.158;7.346;2022-11-25T02:28:54;5.20;99.90
45983;DHT22;31711;47.158;7.346;2022-11-25T02:31:22;5.20;99.90
45983;DHT22;31711;47.158;7.346;2022-11-25T02:33:48;5.20;99.90
45983;DHT22;31711;47.158;7.346;2022-11-25T02:36:17;5.20;99.90
45983;DHT22;31711;47.158;7.346;2022-11-25T02:38:47;5.20;99.90
45983;DHT22;31711;47.158;7.346;2022-11-25T02:43:51;5.20;99.90
45983;DHT22;31711;47.158;7.346;2022-11-25T02:46:19;5.20;99.90
45983;DHT22;31711;47.158;7.346;2022-11-25T02:48:46;5.20;99.90
45983;DHT22;31711;47.158;7.346;2022-11-25T02:51:15;5.20;99.90
45983;DHT22;31711;47.158;7.346;2022-11-25T02:53:41;5.30;99.90
45983;DHT22;31711;47.158;7.346;2022-11-25T02:56:08;5.20;99.90
45983;DHT22;31711;47.158;7.346;2022-11-25T02:58:34;5.20;99.90
45983;DHT22;31711;47.158;7.346;2022-11-25T03:01:00;5.30;99.90
45983;DHT22;31711;47.158;7.346;2022-11-25T03:03:27;5.20;99.90
45983;DHT22;31711;47.158;7.346;2022-11-25T03:05:53;5.20;99.90
45983;DHT22;31711;47.158;7.346;2022-11-25T03:08:19;5.20;99.90
45983;DHT22;31711;47.158;7.346;2022-11-25T03:10:45;5.20;99.90
45983;DHT22;31711;47.158;7.346;2022-11-25T03:13:11;5.30;99.90
45983;DHT22;31711;47.158;7.346;2022-11-25T03:15:37;5.30;99.90
45983;DHT22;31711;47.158;7.346;2022-11-25T03:18:04;5.30;99.90
45983;DHT22;31711;47.158;7.346;2022-11-25T03:20:31;5.30;99.90
45983;DHT22;31711;47.158;7.346;2022-11-25T03:22:57;5.40;99.90
45983;DHT22;31711;47.158;7.346;2022-11-25T03:25:23;5.40;99.90
45983;DHT22;31711;47.158;7.346;2022-11-25T03:27:49;5.30;99.90
45983;DHT22;31711;47.158;7.346;2022-11-25T03:30:18;5.30;99.90
45983;DHT22;31711;47.158;7.346;2022-11-25T03:32:45;5.40;99.90
45983;DHT22;31711;47.158;7.346;2022-11-25T03:35:12;5.40;99.90
45983;DHT22;31711;47.158;7.346;2022-11-25T03:37:38;5.30;99.90
45983;DHT22;31711;47.158;7.346;2022-11-25T03:40:06;5.30;99.90
45983;DHT22;31711;47.158;7.346;2022-11-25T03:42:34;5.50;99.90
45983;DHT22;31711;47.158;7.346;2022-11-25T03:45:01;5.60;99.90
45983;DHT22;31711;47.158;7.346;2022-11-25T03:47:27;5.60;99.90
45983;DHT22;31711;47.158;7.346;2022-11-25T03:49:53;5.70;99.90
45983;DHT22;31711;47.158;7.346;2022-11-25T03:52:19;5.70;99.90
45983;DHT22;31711;47.158;7.346;2022-11-25T03:54:45;5.80;99.90
45983;DHT22;31711;47.158;7.346;2022-11-25T03:57:11;5.70;99.90
45983;DHT22;31711;47.158;7.346;2022-11-25T03:59:37;5.80;99.90
45983;DHT22;31711;47.158;7.346;2022-11-25T04:02:03;5.80;99.90
45983;DHT22;31711;47.158;7.346;2022-11-25T04:04:29;5.80;99.90
45983;DHT22;31711;47.158;7.346;2022-11-25T04:06:55;5.80;99.90
45983;DHT22;31711;47.158;7.346;2022-11-25T04:09:21;5.80;99.90
45983;DHT22;31711;47.158;7.346;2022-11-25T04:11:47;5.80;99.90
45983;DHT22;31711;47.158;7.346;2022-11-25T04:14:31;5.70;99.90
45983;DHT22;31711;47.158;7.346;2022-11-25T04:16:57;5.70;99.90
45983;DHT22;31711;47.158;7.346;2022-11-25T04:19:23;5.80;99.90
45983;DHT22;31711;47.158;7.346;2022-11-25T04:21:49;5.90;99.90
45983;DHT22;31711;47.158;7.346;2022-11-25T04:24:15;6.00;99.90
45983;DHT22;31711;47.158;7.346;2022-11-25T04:26:41;6.10;99.90
45983;DHT22;31711;47.158;7.346;2022-11-25T04:29:07;6.10;99.90
45983;DHT22;31711;47.158;7.346;2022-11-25T04:31:33;6.20;99.90
45983;DHT22;31711;47.158;7.346;2022-11-25T04:33:59;6.10;99.90
45983;DHT22;31711;47.158;7.346;2022-11-25T04:36:25;6.10;99.90
45983;DHT22;31711;47.158;7.346;2022-11-25T04:38:51;6.00;99.90
45983;DHT22;31711;47.158;7.346;2022-11-25T04:41:17;6.00;99.90
45983;DHT22;31711;47.158;7.346;2022-11-25T04:43:43;6.00;99.90
45983;DHT22;31711;47.158;7.346;2022-11-25T04:46:20;6.00;99.90
45983;DHT22;31711;47.158;7.346;2022-11-25T04:48:47;6.00;99.90
45983;DHT22;31711;47.158;7.346;2022-11-25T04:51:13;6.00;99.90
45983;DHT22;31711;47.158;7.346;2022-11-25T04:53:39;6.00;99.90
45983;DHT22;31711;47.158;7.346;2022-11-25T04:56:05;5.90;99.90
45983;DHT22;31711;47.158;7.346;2022-11-25T04:58:31;5.80;99.90
45983;DHT22;31711;47.158;7.346;2022-11-25T05:01:15;5.60;99.90
45983;DHT22;31711;47.158;7.346;2022-11-25T05:03:41;5.50;99.90
45983;DHT22;31711;47.158;7.346;2022-11-25T05:06:08;5.40;99.90
45983;DHT22;31711;47.158;7.346;2022-11-25T05:08:34;5.30;99.90
45983;DHT22;31711;47.158;7.346;2022-11-25T05:11:00;5.20;99.90
45983;DHT22;31711;47.158;7.346;2022-11-25T05:13:26;5.10;99.90
45983;DHT22;31711;47.158;7.346;2022-11-25T05:15:52;5.10;99.90
45983;DHT22;31711;47.158;7.346;2022-11-25T05:18:19;5.00;99.90
45983;DHT22;31711;47.158;7.346;2022-11-25T05:20:44;5.00;99.90
45983;DHT22;31711;47.158;7.346;2022-11-25T05:23:10;4.90;99.90
45983;DHT22;31711;47.158;7.346;2022-11-25T05:25:36;4.90;99.90
45983;DHT22;31711;47.158;7.346;2022-11-25T05:28:02;4.80;99.90
45983;DHT22;31711;47.158;7.346;2022-11-25T05:30:28;4.80;99.90
45983;DHT22;31711;47.158;7.346;2022-11-25T05:32:54;4.80;99.90
45983;DHT22;31711;47.158;7.346;2022-11-25T05:35:20;4.80;99.90
45983;DHT22;31711;47.158;7.346;2022-11-25T05:37:47;4.90;99.90
45983;DHT22;31711;47.158;7.346;2022-11-25T05:40:13;4.90;99.90
45983;DHT22;31711;47.158;7.346;2022-11-25T05:42:39;4.90;99.90
45983;DHT22;31711;47.158;7.346;2022-11-25T05:45:06;5.00;99.90
45983;DHT22;31711;47.158;7.346;2022-11-25T05:47:32;5.00;99.90
45983;DHT22;31711;47.158;7.346;2022-11-25T05:49:58;5.10;99.90
45983;DHT22;31711;47.158;7.346;2022-11-25T05:52:24;5.10;99.90
45983;DHT22;31711;47.158;7.346;2022-11-25T05:54:50;5.20;99.90
45983;DHT22;31711;47.158;7.346;2022-11-25T05:57:16;5.20;99.90
45983;DHT22;31711;47.158;7.346;2022-11-25T05:59:42;5.30;99.90
45983;DHT22;31711;47.158;7.346;2022-11-25T06:02:08;5.20;99.90
45983;DHT22;31711;47.158;7.346;2022-11-25T06:04:33;5.30;99.90
45983;DHT22;31711;47.158;7.346;2022-11-25T06:06:59;5.40;99.90
45983;DHT22;31711;47.158;7.346;2022-11-25T06:09:25;5.40;99.90
45983;DHT22;31711;47.158;7.346;2022-11-25T06:11:51;5.40;99.90
45983;DHT22;31711;47.158;7.346;2022-11-25T06:14:17;5.40;99.90
45983;DHT22;31711;47.158;7.346;2022-11-25T06:16:43;5.40;99.90
45983;DHT22;31711;47.158;7.346;2022-11-25T06:19:09;5.50;99.90
45983;DHT22;31711;47.158;7.346;2022-11-25T06:21:35;5.50;99.90
45983;DHT22;31711;47.158;7.346;2022-11-25T06:24:01;5.50;99.90
45983;DHT22;31711;47.158;7.346;2022-11-25T06:26:28;5.50;99.90
45983;DHT22;31711;47.158;7.346;2022-11-25T06:28:54;5.50;99.90
45983;DHT22;31711;47.158;7.346;2022-11-25T06:31:23;5.60;99.90
45983;DHT22;31711;47.158;7.346;2022-11-25T06:33:50;5.70;99.90
45983;DHT22;31711;47.158;7.346;2022-11-25T06:36:18;5.70;99.90
45983;DHT22;31711;47.158;7.346;2022-11-25T06:38:46;5.70;99.90
45983;DHT22;31711;47.158;7.346;2022-11-25T06:41:13;5.60;99.90
45983;DHT22;31711;47.158;7.346;2022-11-25T06:43:40;5.60;99.90
45983;DHT22;31711;47.158;7.346;2022-11-25T06:46:14;5.60;99.90
45983;DHT22;31711;47.158;7.346;2022-11-25T06:48:40;5.70;99.90
45983;DHT22;31711;47.158;7.346;2022-11-25T06:51:09;5.80;99.90
45983;DHT22;31711;47.158;7.346;2022-11-25T06:53:39;5.70;99.90
45983;DHT22;31711;47.158;7.346;2022-11-25T06:56:17;5.60;99.90
45983;DHT22;31711;47.158;7.346;2022-11-25T06:58:44;5.40;99.90
45983;DHT22;31711;47.158;7.346;2022-11-25T07:01:19;5.40;99.90
45983;DHT22;31711;47.158;7.346;2022-11-25T07:03:48;5.50;99.90
45983;DHT22;31711;47.158;7.346;2022-11-25T07:06:16;5.50;99.90
45983;DHT22;31711;47.158;7.346;2022-11-25T07:08:43;5.50;99.90
45983;DHT22;31711;47.158;7.346;2022-11-25T07:11:45;5.50;99.90
45983;DHT22;31711;47.158;7.346;2022-11-25T07:14:12;5.50;99.90
45983;DHT22;31711;47.158;7.346;2022-11-25T07:16:40;5.50;99.90
45983;DHT22;31711;47.158;7.346;2022-11-25T07:19:06;5.50;99.90
45983;DHT22;31711;47.158;7.346;2022-11-25T07:21:33;5.50;99.90
45983;DHT22;31711;47.158;7.346;2022-11-25T07:24:01;5.60;99.90
45983;DHT22;31711;47.158;7.346;2022-11-25T07:26:30;5.60;99.90
45983;DHT22;31711;47.158;7.346;2022-11-25T07:28:59;5.60;99.90
45983;DHT22;31711;47.158;7.346;2022-11-25T07:31:26;5.60;99.90
45983;DHT22;31711;47.158;7.346;2022-11-25T07:33:57;5.50;99.90
45983;DHT22;31711;47.158;7.346;2022-11-25T07:36:23;5.70;99.90
45983;DHT22;31711;47.158;7.346;2022-11-25T07:38:50;5.70;99.90
45983;DHT22;31711;47.158;7.346;2022-11-25T07:41:21;5.70;99.90
45983;DHT22;31711;47.158;7.346;2022-11-25T07:43:50;5.60;99.90
45983;DHT22;31711;47.158;7.346;2022-11-25T07:46:28;5.50;99.90
45983;DHT22;31711;47.158;7.346;2022-11-25T07:49:00;5.50;99.90
45983;DHT22;31711;47.158;7.346;2022-11-25T07:51:29;5.60;99.90
45983;DHT22;31711;47.158;7.346;2022-11-25T07:53:57;5.60;99.90
45983;DHT22;31711;47.158;7.346;2022-11-25T07:56:23;5.70;99.90
45983;DHT22;31711;47.158;7.346;2022-11-25T07:58:49;5.70;99.90
45983;DHT22;31711;47.158;7.346;2022-11-25T08:01:16;5.80;99.90
45983;DHT22;31711;47.158;7.346;2022-11-25T08:03:44;5.90;99.90
45983;DHT22;31711;47.158;7.346;2022-11-25T08:06:13;5.90;99.90
45983;DHT22;31711;47.158;7.346;2022-11-25T08:08:41;6.00;99.90
45983;DHT22;31711;47.158;7.346;2022-11-25T08:11:08;6.20;99.90
45983;DHT22;31711;47.158;7.346;2022-11-25T08:13:35;6.30;99.90
45983;DHT22;31711;47.158;7.346;2022-11-25T08:16:01;6.50;99.90
45983;DHT22;31711;47.158;7.346;2022-11-25T08:18:27;6.50;99.90
45983;DHT22;31711;47.158;7.346;2022-11-25T08:20:58;6.50;99.90
45983;DHT22;31711;47.158;7.346;2022-11-25T08:23:25;6.70;99.90
45983;DHT22;31711;47.158;7.346;2022-11-25T08:25:51;6.80;99.90
45983;DHT22;31711;47.158;7.346;2022-11-25T08:28:17;6.80;99.90
45983;DHT22;31711;47.158;7.346;2022-11-25T08:30:43;6.80;99.90
45983;DHT22;31711;47.158;7.346;2022-11-25T08:33:09;6.90;99.90
45983;DHT22;31711;47.158;7.346;2022-11-25T08:35:35;6.90;99.90
45983;DHT22;31711;47.158;7.346;2022-11-25T08:38:06;6.70;99.90
45983;DHT22;31711;47.158;7.346;2022-11-25T08:40:33;6.70;99.90
45983;DHT22;31711;47.158;7.346;2022-11-25T08:43:00;6.60;99.90
45983;DHT22;31711;47.158;7.346;2022-11-25T08:45:26;6.60;99.90
45983;DHT22;31711;47.158;7.346;2022-11-25T08:47:52;6.50;99.90
45983;DHT22;31711;47.158;7.346;2022-11-25T08:50:18;6.50;99.90
45983;DHT22;31711;47.158;7.346;2022-11-25T08:52:44;6.60;99.90
45983;DHT22;31711;47.158;7.346;2022-11-25T08:55:12;6.80;99.90
45983;DHT22;31711;47.158;7.346;2022-11-25T08:57:37;6.90;99.90
45983;DHT22;31711;47.158;7.346;2022-11-25T09:00:05;6.90;99.90
45983;DHT22;31711;47.158;7.346;2022-11-25T09:02:31;7.10;99.90
45983;DHT22;31711;47.158;7.346;2022-11-25T09:04:57;7.20;99.90
45983;DHT22;31711;47.158;7.346;2022-11-25T09:07:23;7.40;99.90
45983;DHT22;31711;47.158;7.346;2022-11-25T09:09:49;7.40;99.90
45983;DHT22;31711;47.158;7.346;2022-11-25T09:12:15;7.30;99.90
45983;DHT22;31711;47.158;7.346;2022-11-25T09:14:41;7.40;99.90
45983;DHT22;31711;47.158;7.346;2022-11-25T09:17:09;7.40;99.90
45983;DHT22;31711;47.158;7.346;2022-11-25T09:19:35;7.20;99.90
45983;DHT22;31711;47.158;7.346;2022-11-25T09:22:01;7.10;99.90
45983;DHT22;31711;47.158;7.346;2022-11-25T09:24:27;7.10;99.90
45983;DHT22;31711;47.158;7.346;2022-11-25T09:26:53;7.00;99.90
45983;DHT22;31711;47.158;7.346;2022-11-25T09:29:19;7.00;99.90
45983;DHT22;31711;47.158;7.346;2022-11-25T09:31:45;7.10;99.90
45983;DHT22;31711;47.158;7.346;2022-11-25T09:34:12;7.30;99.90
45983;DHT22;31711;47.158;7.346;2022-11-25T09:36:38;7.50;99.90
45983;DHT22;31711;47.158;7.346;2022-11-25T09:39:04;7.60;99.90
45983;DHT22;31711;47.158;7.346;2022-11-25T09:48:25;7.50;99.90
45983;DHT22;31711;47.158;7.346;2022-11-25T09:53:45;7.50;99.90
45983;DHT22;31711;47.158;7.346;2022-11-25T09:59:04;7.60;99.90
45983;DHT22;31711;47.158;7.346;2022-11-25T10:01:37;7.70;99.90
45983;DHT22;31711;47.158;7.346;2022-11-25T10:04:16;7.70;99.90
45983;DHT22;31711;47.158;7.346;2022-11-25T10:06:47;7.70;99.90
45983;DHT22;31711;47.158;7.346;2022-11-25T10:09:18;7.60;99.90
45983;DHT22;31711;47.158;7.346;2022-11-25T10:12:00;7.60;99.90
45983;DHT22;31711;47.158;7.346;2022-11-25T10:14:46;7.70;99.90
45983;DHT22;31711;47.158;7.346;2022-11-25T10:17:30;7.60;99.90
45983;DHT22;31711;47.158;7.346;2022-11-25T10:25:24;7.90;99.90
45983;DHT22;31711;47.158;7.346;2022-11-25T10:28:01;8.00;99.90
45983;DHT22;31711;47.158;7.346;2022-11-25T10:30:56;8.20;99.90
45983;DHT22;31711;47.158;7.346;2022-11-25T10:33:38;8.20;99.90
45983;DHT22;31711;47.158;7.346;2022-11-25T10:36:32;8.20;99.90
45983;DHT22;31711;47.158;7.346;2022-11-25T10:39:15;8.20;99.90
45983;DHT22;31711;47.158;7.346;2022-11-25T10:41:47;8.40;99.90
45983;DHT22;31711;47.158;7.346;2022-11-25T10:44:35;8.50;99.90
45983;DHT22;31711;47.158;7.346;2022-11-25T10:47:35;8.70;99.90
45983;DHT22;31711;47.158;7.346;2022-11-25T10:50:28;8.90;99.90
45983;DHT22;31711;47.158;7.346;2022-11-25T10:53:08;8.80;99.90
45983;DHT22;31711;47.158;7.346;2022-11-25T10:55:35;9.00;99.90
45983;DHT22;31711;47.158;7.346;2022-11-25T10:58:28;9.10;99.90
45983;DHT22;31711;47.158;7.346;2022-11-25T11:01:24;9.30;99.90
45983;DHT22;31711;47.158;7.346;2022-11-25T11:03:52;9.60;99.90
45983;DHT22;31711;47.158;7.346;2022-11-25T11:06:42;9.80;99.90
45983;DHT22;31711;47.158;7.346;2022-11-25T11:09:38;9.90;99.90
45983;DHT22;31711;47.158;7.346;2022-11-25T11:14:41;10.10;99.90
45983;DHT22;31711;47.158;7.346;2022-11-25T11:17:32;10.10;99.90
45983;DHT22;31711;47.158;7.346;2022-11-25T11:20:18;10.20;99.90
45983;DHT22;31711;47.158;7.346;2022-11-25T11:23:09;10.20;99.90
45983;DHT22;31711;47.158;7.346;2022-11-25T11:25:42;10.40;99.90
45983;DHT22;31711;47.158;7.346;2022-11-25T11:33:34;10.40;99.90
45983;DHT22;31711;47.158;7.346;2022-11-25T11:41:37;10.30;99.90
45983;DHT22;31711;47.158;7.346;2022-11-25T11:44:32;10.30;99.90
45983;DHT22;31711;47.158;7.346;2022-11-25T11:49:52;9.90;99.90
45983;DHT22;31711;47.158;7.346;2022-11-25T11:52:40;10.00;99.90
45983;DHT22;31711;47.158;7.346;2022-11-25T12:01:34;10.00;99.90
45983;DHT22;31711;47.158;7.346;2022-11-25T12:07:02;9.90;99.90
45983;DHT22;31711;47.158;7.346;2022-11-25T12:09:35;10.00;99.90
45983;DHT22;31711;47.158;7.346;2022-11-25T12:12:05;9.80;99.90
45983;DHT22;31711;47.158;7.346;2022-11-25T12:14:42;9.60;99.90
45983;DHT22;31711;47.158;7.346;2022-11-25T12:17:29;9.70;99.90
45983;DHT22;31711;47.158;7.346;2022-11-25T12:22:57;9.90;99.90
45983;DHT22;31711;47.158;7.346;2022-11-25T12:25:37;9.90;99.90
45983;DHT22;31711;47.158;7.346;2022-11-25T12:28:25;9.80;99.90
45983;DHT22;31711;47.158;7.346;2022-11-25T12:31:09;9.90;99.90
45983;DHT22;31711;47.158;7.346;2022-11-25T12:36:37;10.10;99.90
45983;DHT22;31711;47.158;7.346;2022-11-25T12:39:27;10.20;99.90
45983;DHT22;31711;47.158;7.346;2022-11-25T12:42:10;9.90;99.90
45983;DHT22;31711;47.158;7.346;2022-11-25T12:45:17;9.80;99.90
45983;DHT22;31711;47.158;7.346;2022-11-25T12:47:45;9.70;99.90
45983;DHT22;31711;47.158;7.346;2022-11-25T12:56:15;9.80;99.90
45983;DHT22;31711;47.158;7.346;2022-11-25T13:04:31;10.10;99.90
45983;DHT22;31711;47.158;7.346;2022-11-25T13:13:00;10.10;99.90
45983;DHT22;31711;47.158;7.346;2022-11-25T13:15:42;10.20;99.90
45983;DHT22;31711;47.158;7.346;2022-11-25T13:18:13;10.20;99.90
45983;DHT22;31711;47.158;7.346;2022-11-25T13:20:50;10.10;99.90
45983;DHT22;31711;47.158;7.346;2022-11-25T13:25:44;10.00;99.90
45983;DHT22;31711;47.158;7.346;2022-11-25T13:30:49;9.90;99.90
45983;DHT22;31711;47.158;7.346;2022-11-25T13:41:35;10.10;99.90
45983;DHT22;31711;47.158;7.346;2022-11-25T13:44:48;10.20;99.90
45983;DHT22;31711;47.158;7.346;2022-11-25T13:47:31;10.30;99.90
45983;DHT22;31711;47.158;7.346;2022-11-25T13:50:21;10.40;99.90
45983;DHT22;31711;47.158;7.346;2022-11-25T13:53:02;10.50;99.90
45983;DHT22;31711;47.158;7.346;2022-11-25T13:55:38;10.50;99.90
45983;DHT22;31711;47.158;7.346;2022-11-25T14:01:01;10.50;99.90
45983;DHT22;31711;47.158;7.346;2022-11-25T14:08:38;10.20;99.90
45983;DHT22;31711;47.158;7.346;2022-11-25T14:25:20;9.70;99.90
45983;DHT22;31711;47.158;7.346;2022-11-25T14:27:50;9.70;99.90
45983;DHT22;31711;47.158;7.346;2022-11-25T14:30:17;9.70;99.90
45983;DHT22;31711;47.158;7.346;2022-11-25T14:33:00;9.60;99.90
45983;DHT22;31711;47.158;7.346;2022-11-25T14:35:40;9.70;99.90
45983;DHT22;31711;47.158;7.346;2022-11-25T14:38:28;9.60;99.90
45983;DHT22;31711;47.158;7.346;2022-11-25T14:41:02;9.60;99.90
45983;DHT22;31711;47.158;7.346;2022-11-25T14:43:42;9.50;99.90
45983;DHT22;31711;47.158;7.346;2022-11-25T14:46:16;9.50;99.90
45983;DHT22;31711;47.158;7.346;2022-11-25T14:48:43;9.30;99.90
45983;DHT22;31711;47.158;7.346;2022-11-25T14:51:12;9.20;99.90
45983;DHT22;31711;47.158;7.346;2022-11-25T14:53:46;9.20;99.90
45983;DHT22;31711;47.158;7.346;2022-11-25T14:56:33;9.20;99.90
45983;DHT22;31711;47.158;7.346;2022-11-25T14:59:00;9.20;99.90
45983;DHT22;31711;47.158;7.346;2022-11-25T15:01:31;9.20;99.90
45983;DHT22;31711;47.158;7.346;2022-11-25T15:04:17;9.00;99.90
45983;DHT22;31711;47.158;7.346;2022-11-25T15:06:52;9.10;99.90
45983;DHT22;31711;47.158;7.346;2022-11-25T15:11:51;8.90;99.90
45983;DHT22;31711;47.158;7.346;2022-11-25T15:14:30;8.90;99.90
45983;DHT22;31711;47.158;7.346;2022-11-25T15:16:57;8.90;99.90
45983;DHT22;31711;47.158;7.346;2022-11-25T15:19:26;8.70;99.90
45983;DHT22;31711;47.158;7.346;2022-11-25T15:22:03;8.70;99.90
45983;DHT22;31711;47.158;7.346;2022-11-25T15:24:31;8.50;99.90
45983;DHT22;31711;47.158;7.346;2022-11-25T15:26:59;8.50;99.90
45983;DHT22;31711;47.158;7.346;2022-11-25T15:29:28;8.50;99.90
45983;DHT22;31711;47.158;7.346;2022-11-25T15:31:55;8.50;99.90
45983;DHT22;31711;47.158;7.346;2022-11-25T15:34:22;8.50;99.90
45983;DHT22;31711;47.158;7.346;2022-11-25T15:36:49;8.50;99.90
45983;DHT22;31711;47.158;7.346;2022-11-25T15:42:15;8.40;99.90
45983;DHT22;31711;47.158;7.346;2022-11-25T15:45:00;8.30;99.90
45983;DHT22;31711;47.158;7.346;2022-11-25T15:47:30;8.20;99.90
45983;DHT22;31711;47.158;7.346;2022-11-25T15:50:04;8.10;99.90
45983;DHT22;31711;47.158;7.346;2022-11-25T15:52:33;8.10;99.90
45983;DHT22;31711;47.158;7.346;2022-11-25T15:57:50;7.70;99.90
45983;DHT22;31711;47.158;7.346;2022-11-25T16:00:20;7.80;99.90
45983;DHT22;31711;47.158;7.346;2022-11-25T16:02:55;7.70;99.90
45983;DHT22;31711;47.158;7.346;2022-11-25T16:05:30;7.60;99.90
45983;DHT22;31711;47.158;7.346;2022-11-25T16:08:15;7.60;99.90
45983;DHT22;31711;47.158;7.346;2022-11-25T16:13:25;7.70;99.90
45983;DHT22;31711;47.158;7.346;2022-11-25T16:16:08;7.60;99.90
45983;DHT22;31711;47.158;7.346;2022-11-25T16:21:43;7.70;99.90
45983;DHT22;31711;47.158;7.346;2022-11-25T16:24:39;7.60;99.90
45983;DHT22;31711;47.158;7.346;2022-11-25T16:27:15;7.50;99.90
45983;DHT22;31711;47.158;7.346;2022-11-25T16:29:55;7.50;99.90
45983;DHT22;31711;47.158;7.346;2022-11-25T16:32:27;7.40;99.90
45983;DHT22;31711;47.158;7.346;2022-11-25T16:34:55;7.20;99.90
45983;DHT22;31711;47.158;7.346;2022-11-25T16:37:22;7.20;99.90
45983;DHT22;31711;47.158;7.346;2022-11-25T16:39:48;7.20;99.90
45983;DHT22;31711;47.158;7.346;2022-11-25T16:42:18;7.20;99.90
45983;DHT22;31711;47.158;7.346;2022-11-25T16:44:47;7.30;99.90
45983;DHT22;31711;47.158;7.346;2022-11-25T16:47:14;7.20;99.90
45983;DHT22;31711;47.158;7.346;2022-11-25T16:49:40;7.20;99.90
45983;DHT22;31711;47.158;7.346;2022-11-25T16:52:06;7.20;99.90
45983;DHT22;31711;47.158;7.346;2022-11-25T16:54:32;7.20;99.90
45983;DHT22;31711;47.158;7.346;2022-11-25T16:56:58;7.20;99.90
45983;DHT22;31711;47.158;7.346;2022-11-25T16:59:30;7.10;99.90
45983;DHT22;31711;47.158;7.346;2022-11-25T17:01:57;7.10;99.90
45983;DHT22;31711;47.158;7.346;2022-11-25T17:04:24;7.10;99.90
45983;DHT22;31711;47.158;7.346;2022-11-25T17:06:50;7.00;99.90
45983;DHT22;31711;47.158;7.346;2022-11-25T17:09:16;7.00;99.90
45983;DHT22;31711;47.158;7.346;2022-11-25T17:11:44;6.90;99.90
45983;DHT22;31711;47.158;7.346;2022-11-25T17:14:39;6.80;99.90
45983;DHT22;31711;47.158;7.346;2022-11-25T17:17:05;6.70;99.90
45983;DHT22;31711;47.158;7.346;2022-11-25T17:19:34;6.60;99.90
45983;DHT22;31711;47.158;7.346;2022-11-25T17:22:00;6.60;99.90
45983;DHT22;31711;47.158;7.346;2022-11-25T17:24:26;6.60;99.90
45983;DHT22;31711;47.158;7.346;2022-11-25T17:26:59;6.60;99.90
45983;DHT22;31711;47.158;7.346;2022-11-25T17:29:38;6.60;99.90
45983;DHT22;31711;47.158;7.346;2022-11-25T17:32:05;6.60;99.90
45983;DHT22;31711;47.158;7.346;2022-11-25T17:34:31;6.50;99.90
45983;DHT22;31711;47.158;7.346;2022-11-25T17:36:57;6.40;99.90
45983;DHT22;31711;47.158;7.346;2022-11-25T17:39:23;6.30;99.90
45983;DHT22;31711;47.158;7.346;2022-11-25T17:41:50;6.20;99.90
45983;DHT22;31711;47.158;7.346;2022-11-25T17:44:26;6.20;99.90
45983;DHT22;31711;47.158;7.346;2022-11-25T17:46:54;6.10;99.90
45983;DHT22;31711;47.158;7.346;2022-11-25T17:49:20;6.10;99.90
45983;DHT22;31711;47.158;7.346;2022-11-25T17:51:47;6.00;99.90
45983;DHT22;31711;47.158;7.346;2022-11-25T17:54:13;5.90;99.90
45983;DHT22;31711;47.158;7.346;2022-11-25T17:56:41;5.80;99.90
45983;DHT22;31711;47.158;7.346;2022-11-25T17:59:19;5.80;99.90
45983;DHT22;31711;47.158;7.346;2022-11-25T18:01:46;5.80;99.90
45983;DHT22;31711;47.158;7.346;2022-11-25T18:04:31;5.70;99.90